createdAt,value
2023-01-19T00:00:49.740Z,99787.41
2023-01-19T00:07:51.370Z,99805.94
2023-01-19T00:14:53.024Z,99814.53
2023-01-19T00:21:54.710Z,99823.31
2023-01-19T00:28:56.441Z,99831.00
2023-01-19T00:35:58.177Z,99837.06
2023-01-19T00:43:00.641Z,99838.72
2023-01-19T00:50:02.726Z,99851.91
2023-01-19T00:57:04.468Z,99850.31
2023-01-19T01:04:06.255Z,99854.56
2023-01-19T01:11:08.016Z,99862.72
2023-01-19T01:18:09.689Z,99865.22
2023-01-19T01:25:19.026Z,99865.72
2023-01-19T01:32:20.737Z,99866.28
2023-01-19T01:39:22.355Z,99857.84
2023-01-19T01:46:24.681Z,99876.47
2023-01-19T01:53:26.287Z,99882.06
2023-01-19T02:00:28.111Z,99885.28
2023-01-19T02:08:30.505Z,99881.47
2023-01-19T02:15:32.396Z,99867.94
2023-01-19T02:22:38.475Z,99869.34
2023-01-19T02:29:40.221Z,99874.53
2023-01-19T02:36:58.357Z,99873.41
2023-01-19T02:44:00.167Z,99874.84
2023-01-19T02:51:04.734Z,99869.56
2023-01-19T02:58:16.252Z,99868.13
2023-01-19T03:05:37.364Z,99867.13
2023-01-19T03:13:06.953Z,99874.97
2023-01-19T03:20:09.344Z,99875.53
2023-01-19T03:27:13.916Z,99869.22
2023-01-19T03:34:15.494Z,99889.59
2023-01-19T03:41:17.898Z,99881.69
2023-01-19T03:48:21.411Z,99898.59
2023-01-19T03:55:23.000Z,99894.16
2023-01-19T04:02:24.751Z,99904.44
2023-01-19T04:09:27.116Z,99904.31
2023-01-19T04:16:29.077Z,99906.56
2023-01-19T04:23:30.739Z,99899.44
2023-01-19T04:30:32.459Z,99901.78
2023-01-19T04:37:34.109Z,99907.41
2023-01-19T04:44:35.729Z,99921.97
2023-01-19T04:51:37.378Z,99906.81
2023-01-19T04:58:39.057Z,99904.84
2023-01-19T05:05:40.720Z,99917.31
2023-01-19T05:12:42.396Z,99914.31
2023-01-19T05:19:44.200Z,99916.69
2023-01-19T05:26:45.901Z,99919.97
2023-01-19T05:33:48.986Z,99933.22
2023-01-19T05:40:58.366Z,99926.81
2023-01-19T05:48:00.089Z,99927.97
2023-01-19T05:55:01.935Z,99940.88
2023-01-19T06:02:03.747Z,99952.34
2023-01-19T06:09:05.491Z,99969.38
2023-01-19T06:16:07.947Z,99965.88
2023-01-19T06:23:10.552Z,99957.25
2023-01-19T06:30:13.513Z,99958.19
2023-01-19T06:37:16.671Z,99966.56
2023-01-19T06:44:18.356Z,99958.22
2023-01-19T06:51:20.099Z,99967.03
2023-01-19T06:58:21.766Z,99975.91
2023-01-19T07:05:23.429Z,99970.25
2023-01-19T07:12:25.150Z,99988.16
2023-01-19T07:19:26.952Z,99998.22
2023-01-19T07:26:28.628Z,100004.16
2023-01-19T07:33:30.346Z,99999.31
2023-01-19T07:40:33.479Z,100009.94
2023-01-19T07:47:35.257Z,100013.84
2023-01-19T07:54:37.959Z,100013.16
2023-01-19T08:01:39.659Z,100027.09
2023-01-19T08:08:41.565Z,100029.84
2023-01-19T08:15:43.253Z,100029.25
2023-01-19T08:22:47.379Z,100038.34
2023-01-19T08:29:49.093Z,100041.34
2023-01-19T08:36:50.833Z,100049.78
2023-01-19T08:43:52.457Z,100046.91
2023-01-19T08:50:54.574Z,100045.81
2023-01-19T08:57:57.957Z,100049.44
2023-01-19T09:04:59.753Z,100051.31
2023-01-19T09:12:01.422Z,100052.91
2023-01-19T09:19:03.225Z,100055.06
2023-01-19T09:26:05.573Z,100064.34
2023-01-19T09:33:11.105Z,100072.91
2023-01-19T09:40:13.429Z,100067.50
2023-01-19T09:47:16.393Z,100064.59
2023-01-19T09:54:44.419Z,100053.97
2023-01-19T10:02:06.465Z,100053.28
2023-01-19T10:09:56.049Z,100050.50
2023-01-19T10:17:18.963Z,100046.91
2023-01-19T10:24:20.487Z,100044.81
2023-01-19T10:31:23.022Z,100035.34
2023-01-19T10:38:24.871Z,100029.16
2023-01-19T10:45:30.904Z,100022.19
2023-01-19T10:52:44.698Z,100028.84
2023-01-19T10:59:50.989Z,100028.09
2023-01-19T11:06:52.932Z,100031.22
2023-01-19T11:14:09.098Z,100005.41
2023-01-19T11:21:15.220Z,100007.94
2023-01-19T11:28:45.854Z,100005.59
2023-01-19T11:35:47.635Z,99998.19
2023-01-19T11:42:49.310Z,99989.47
2023-01-19T11:50:03.135Z,99990.00
2023-01-19T11:57:10.560Z,99989.38
2023-01-19T12:04:19.626Z,99983.06
2023-01-19T12:11:33.880Z,99987.81
2023-01-19T12:18:38.890Z,99983.75
2023-01-19T12:26:16.565Z,99978.16
2023-01-19T12:33:39.949Z,99984.66
2023-01-19T12:40:42.167Z,99993.28
2023-01-19T12:47:53.296Z,100003.53
2023-01-19T12:55:08.274Z,100002.97
2023-01-19T13:02:26.698Z,100006.69
2023-01-19T13:09:35.635Z,100005.31
2023-01-19T13:16:37.388Z,100011.59
2023-01-19T13:23:49.832Z,100017.69
2023-01-19T13:30:54.847Z,100015.41
2023-01-19T13:37:56.669Z,100030.41
2023-01-19T13:44:59.914Z,100036.00
2023-01-19T13:52:04.603Z,100038.91
2023-01-19T13:59:12.436Z,100038.94
2023-01-19T14:06:22.577Z,100054.31
2023-01-19T14:13:34.485Z,100046.19
2023-01-19T14:20:38.899Z,100063.03
2023-01-19T14:27:40.988Z,100062.78
2023-01-19T14:35:06.852Z,100073.13
2023-01-19T14:42:16.635Z,100078.94
2023-01-19T14:49:28.765Z,100076.53
2023-01-19T14:56:31.495Z,100073.69
2023-01-19T15:03:48.758Z,100079.88
2023-01-19T15:10:50.559Z,100081.47
2023-01-19T15:17:52.717Z,100082.66
2023-01-19T15:24:59.814Z,100092.13
2023-01-19T15:32:02.275Z,100093.84
2023-01-19T15:39:04.029Z,100102.47
2023-01-19T15:46:06.369Z,100111.28
2023-01-19T15:53:13.229Z,100114.59
2023-01-19T16:00:15.545Z,100105.31
2023-01-19T16:07:17.191Z,100102.78
2023-01-19T16:14:19.085Z,100093.84
2023-01-19T16:21:20.801Z,100103.72
2023-01-19T16:28:22.612Z,100102.38
2023-01-19T16:35:24.431Z,100122.00
2023-01-19T16:42:26.032Z,100119.97
2023-01-19T16:49:28.585Z,100117.84
2023-01-19T16:56:30.413Z,100122.34
2023-01-19T17:03:32.061Z,100137.91
2023-01-19T17:10:36.233Z,100121.00
2023-01-19T17:17:38.179Z,100129.72
2023-01-19T17:24:43.271Z,100120.41
2023-01-19T17:31:45.856Z,100138.41
2023-01-19T17:38:51.276Z,100140.47
2023-01-19T17:45:56.463Z,100141.03
2023-01-19T17:52:58.370Z,100149.69
2023-01-19T18:00:00.127Z,100155.19
2023-01-19T18:07:02.102Z,100157.88
2023-01-19T18:14:03.830Z,100161.53
2023-01-19T18:21:09.850Z,100177.09
2023-01-19T18:28:11.459Z,100173.69
2023-01-19T18:35:13.254Z,100166.59
2023-01-19T18:42:14.924Z,100176.16
2023-01-19T18:49:16.607Z,100174.44
2023-01-19T18:56:18.409Z,100186.28
2023-01-19T19:03:20.100Z,100198.34
2023-01-19T19:10:21.737Z,100201.13
2023-01-19T19:17:23.333Z,100210.78
2023-01-19T19:24:25.098Z,100221.97
2023-01-19T19:31:27.556Z,100222.41
2023-01-19T19:38:29.394Z,100237.72
2023-01-19T19:45:31.086Z,100245.47
2023-01-19T19:52:37.222Z,100247.41
2023-01-19T19:59:39.200Z,100254.03
2023-01-19T20:06:44.774Z,100248.72
2023-01-19T20:13:47.689Z,100262.66
2023-01-19T20:20:49.523Z,100266.75
2023-01-19T20:27:51.300Z,100281.41
2023-01-19T20:34:52.983Z,100282.44
2023-01-19T20:42:05.467Z,100290.59
2023-01-19T20:49:07.341Z,100294.09
2023-01-19T20:56:12.842Z,100300.72
2023-01-19T21:03:14.801Z,100302.53
2023-01-19T21:10:17.790Z,100313.44
2023-01-19T21:17:19.734Z,100326.53
2023-01-19T21:24:21.639Z,100331.31
2023-01-19T21:31:26.375Z,100332.22
2023-01-19T21:38:31.921Z,100350.59
2023-01-19T21:45:33.699Z,100353.13
2023-01-19T21:52:35.643Z,100366.31
2023-01-19T21:59:37.488Z,100375.69
2023-01-19T22:06:39.523Z,100379.00
2023-01-19T22:13:41.434Z,100392.91
2023-01-19T22:20:43.199Z,100400.91
2023-01-19T22:27:45.238Z,100408.56
2023-01-19T22:34:47.311Z,100428.66
2023-01-19T22:41:48.955Z,100422.06
2023-01-19T22:48:50.649Z,100427.34
2023-01-19T22:55:52.388Z,100438.22
2023-01-19T23:02:54.030Z,100440.66
2023-01-19T23:09:55.715Z,100433.94
2023-01-19T23:16:57.462Z,100447.13
2023-01-19T23:24:00.669Z,100455.13
2023-01-19T23:31:26.755Z,100455.13
2023-01-19T23:38:28.498Z,100460.06
2023-01-19T23:45:30.107Z,100461.84
2023-01-19T23:52:31.806Z,100475.22
2023-01-19T23:59:33.531Z,100463.84
